Fair Haven, Michigan
Current Conditions -  °F | °C
As of 10:55 AM on Friday 24 Oct 2014 (Local Time) from KMTC Reporting Station
Broken Clouds Broken Clouds  
Wind Chill: 55°   Ceiling: 21000
Heat Index: 55°   Visibility: 7mi
Dew Point: 43°   Wind: 5mph
Humidity: 64%   Direction: 230°SW
Pressure: 30.05"   Gusts: NA
Location:  42.68°N, 82.65°W
Report Text: KMTC 241455Z 23004KT 7SM FEW060 SCT140 BKN210 13/06 A3005 RMK SLP187 T01250059 50000
Loading
Personal Weather Stations






























Interactive Weather Map
Tropical Storm Tracking
New forecast layout! Learn more

10-Day Weather Forecast

Advertisements
Track Severe Weather on mobile